Time;durP1;ratioP1;P1;durP2;ratioP2;P2;SDS_P1;SDS_P2;PMS_P1;PMS_P2;Temp;Humidity;BMP_temperature;BMP_pressure;BME280_temperature;BME280_humidity;BME280_pressure;Samples;Min_cycle;Max_cycle;Signal;HPM_P1;HPM_P2
2023/01/04 00:00:35;;;;;;;64.50;43.30;;;;;;;;;;6276402;22;20016;-73
2023/01/04 00:03:01;;;;;;;62.00;41.78;;;;;;;;;;6276174;22;20000;-74
2023/01/04 00:05:27;;;;;;;63.70;40.50;;;;;;;;;;6249293;22;20015;-70
2023/01/04 00:07:53;;;;;;;73.90;42.38;;;;;;;;;;6276128;22;20083;-72
2023/01/04 00:10:19;;;;;;;59.60;38.20;;;;;;;;;;6276825;22;20010;-73
2023/01/04 00:12:45;;;;;;;58.08;37.33;;;;;;;;;;6276334;22;20008;-74
2023/01/04 00:15:11;;;;;;;47.85;30.20;;;;;;;;;;6276338;22;20022;-75
2023/01/04 00:17:37;;;;;;;47.05;28.25;;;;;;;;;;6276018;22;20004;-73
2023/01/04 00:20:03;;;;;;;38.67;24.38;;;;;;;;;;6275725;22;20003;-69
2023/01/04 00:22:32;;;;;;;37.60;23.20;;;;;;;;;;6276207;22;20057;-70
2023/01/04 00:24:58;;;;;;;37.55;21.92;;;;;;;;;;6276177;22;20011;-72
2023/01/04 00:27:24;;;;;;;34.08;21.42;;;;;;;;;;6275909;22;20061;-75
2023/01/04 00:29:50;;;;;;;34.83;20.95;;;;;;;;;;6276192;22;20000;-71
2023/01/04 00:32:16;;;;;;;37.47;22.20;;;;;;;;;;6276217;22;20074;-74
2023/01/04 00:34:42;;;;;;;34.88;20.58;;;;;;;;;;6275895;22;20000;-73
2023/01/04 00:37:08;;;;;;;33.60;19.10;;;;;;;;;;6275833;22;20053;-74
2023/01/04 00:39:35;;;;;;;35.53;19.67;;;;;;;;;;6275985;22;20003;-70
2023/01/04 00:42:04;;;;;;;33.05;19.83;;;;;;;;;;6276103;22;20041;-71
2023/01/04 00:44:31;;;;;;;33.72;20.25;;;;;;;;;;6276003;22;20016;-74
2023/01/04 00:46:57;;;;;;;36.88;20.02;;;;;;;;;;6276073;22;20003;-72
2023/01/04 00:49:24;;;;;;;30.40;21.17;;;;;;;;;;6276329;22;20000;-72
2023/01/04 00:51:50;;;;;;;31.27;20.15;;;;;;;;;;6276069;22;20000;-70
2023/01/04 00:54:16;;;;;;;32.70;19.55;;;;;;;;;;6275504;22;20003;-72
2023/01/04 00:56:42;;;;;;;36.50;20.42;;;;;;;;;;6275949;22;20000;-73
2023/01/04 00:59:09;;;;;;;34.97;20.40;;;;;;;;;;6276372;22;20000;-71
2023/01/04 01:01:35;;;;;;;35.45;20.63;;;;;;;;;;6248749;22;20018;-69
2023/01/04 01:04:02;;;;;;;32.92;19.63;;;;;;;;;;6275831;22;20330;-72
2023/01/04 01:06:29;;;;;;;34.00;20.33;;;;;;;;;;6275831;22;20015;-71
2023/01/04 01:08:56;;;;;;;28.10;18.98;;;;;;;;;;6275877;22;19996;-72
2023/01/04 01:11:22;;;;;;;32.63;20.40;;;;;;;;;;6276164;22;20010;-74
2023/01/04 01:13:49;;;;;;;30.85;19.58;;;;;;;;;;6248506;22;20007;-73
2023/01/04 01:16:16;;;;;;;33.67;21.10;;;;;;;;;;6275935;22;20004;-73
2023/01/04 01:18:43;;;;;;;36.05;21.02;;;;;;;;;;6275764;22;19996;-74
2023/01/04 01:21:36;;;;;;;31.70;21.95;;;;;;;;;;6275857;22;20043;-70
2023/01/04 01:24:02;;;;;;;33.88;21.92;;;;;;;;;;6272524;22;19999;-71
2023/01/04 01:26:28;;;;;;;42.53;26.85;;;;;;;;;;6275909;22;20338;-73
2023/01/04 01:28:54;;;;;;;51.90;31.58;;;;;;;;;;6275779;22;20046;-69
2023/01/04 01:31:25;;;;;;;61.40;32.35;;;;;;;;;;6276830;22;20349;-73
2023/01/04 01:33:52;;;;;;;124.88;34.10;;;;;;;;;;6277638;22;20430;-71
2023/01/04 01:36:19;;;;;;;135.35;31.27;;;;;;;;;;6277591;22;19996;-75
2023/01/04 01:38:45;;;;;;;92.07;33.38;;;;;;;;;;6277023;22;20418;-77
2023/01/04 01:41:37;;;;;;;83.82;34.00;;;;;;;;;;6277372;22;20044;-69
2023/01/04 01:44:03;;;;;;;50.78;31.92;;;;;;;;;;6273332;22;20365;-74
2023/01/04 01:46:37;;;;;;;54.42;33.17;;;;;;;;;;6277666;22;20027;-70
2023/01/04 01:49:12;;;;;;;50.67;32.63;;;;;;;;;;6277826;22;20007;-72
2023/01/04 01:51:40;;;;;;;45.63;33.70;;;;;;;;;;6277734;22;20069;-73
2023/01/04 01:54:19;;;;;;;50.55;35.30;;;;;;;;;;6277734;22;20079;-72
2023/01/04 01:56:47;;;;;;;52.83;32.15;;;;;;;;;;6277874;22;20345;-72
2023/01/04 01:59:13;;;;;;;51.80;32.13;;;;;;;;;;6274460;22;20008;-74
2023/01/04 02:01:40;;;;;;;85.15;30.50;;;;;;;;;;6274368;22;20023;-72
2023/01/04 02:04:06;;;;;;;69.20;29.65;;;;;;;;;;6274635;22;20003;-72
2023/01/04 02:06:35;;;;;;;52.63;29.13;;;;;;;;;;6277383;22;20035;-74
2023/01/04 02:09:02;;;;;;;40.80;30.63;;;;;;;;;;6277368;22;20449;-78
2023/01/04 02:11:28;;;;;;;41.58;28.80;;;;;;;;;;6277307;22;20501;-72
2023/01/04 02:16:42;;;;;;;37.35;29.60;;;;;;;;;;6277132;22;20018;-72
2023/01/04 02:19:27;;;;;;;50.70;28.02;;;;;;;;;;6277386;22;20019;-74
2023/01/04 02:22:02;;;;;;;32.72;26.45;;;;;;;;;;6277142;22;20008;-72
2023/01/04 02:24:47;;;;;;;39.45;28.70;;;;;;;;;;6277393;22;19996;-73
2023/01/04 02:27:16;;;;;;;53.70;29.13;;;;;;;;;;6276901;22;20022;-73
2023/01/04 02:29:48;;;;;;;105.93;28.25;;;;;;;;;;6277017;22;19999;-72
2023/01/04 02:32:22;;;;;;;41.00;27.70;;;;;;;;;;6277374;22;20318;-73
2023/01/04 02:34:51;;;;;;;81.38;28.50;;;;;;;;;;6277403;22;20011;-77
2023/01/04 02:37:24;;;;;;;38.72;26.77;;;;;;;;;;6276980;22;20003;-72
2023/01/04 02:39:56;;;;;;;45.05;26.45;;;;;;;;;;6277179;22;20026;-74
2023/01/04 02:44:51;;;;;;;32.47;23.88;;;;;;;;;;6276559;22;20456;-73
2023/01/04 02:45:18;;;;;;;31.02;23.35;;;;;;;;;;6276954;22;20010;-73
2023/01/04 02:50:34;;;;;;;27.73;23.15;;;;;;;;;;6277210;22;20018;-77
2023/01/04 02:53:06;;;;;;;53.42;24.42;;;;;;;;;;6277271;22;20000;-73
2023/01/04 02:55:38;;;;;;;44.35;22.77;;;;;;;;;;6277338;22;20027;-71
2023/01/04 02:58:21;;;;;;;45.33;23.63;;;;;;;;;;6276889;22;19999;-71
2023/01/04 03:06:52;;;;;;;45.90;18.40;;;;;;;;;;6277066;22;20018;-69
2023/01/04 03:09:21;;;;;;;137.75;19.70;;;;;;;;;;6276894;22;20039;-69
2023/01/04 03:14:36;;;;;;;79.65;20.60;;;;;;;;;;6276827;22;20384;-72
2023/01/04 03:17:05;;;;;;;49.97;18.98;;;;;;;;;;6276791;22;20004;-71
2023/01/04 03:19:50;;;;;;;127.78;21.02;;;;;;;;;;6249756;22;20086;-70
2023/01/04 03:36:24;;;;;;;62.30;21.38;;;;;;;;;;6226428;22;20011;-75
2023/01/04 03:50:22;;;;;;;27.25;20.25;;;;;;;;;;6276677;22;20465;-74
2023/01/04 03:52:49;;;;;;;26.38;18.58;;;;;;;;;;6276913;22;20030;-73
2023/01/04 03:55:17;;;;;;;24.33;18.73;;;;;;;;;;6275974;22;20426;-76
2023/01/04 03:57:44;;;;;;;26.10;18.75;;;;;;;;;;6275974;22;20035;-72
2023/01/04 04:00:14;;;;;;;95.00;21.70;;;;;;;;;;6276093;22;20303;-72
2023/01/04 04:02:40;;;;;;;110.80;23.30;;;;;;;;;;6276013;22;20015;-73
2023/01/04 04:10:36;;;;;;;57.88;21.35;;;;;;;;;;6276352;22;20069;-72
2023/01/04 04:13:03;;;;;;;68.88;19.70;;;;;;;;;;6248747;22;20418;-73
2023/01/04 04:15:29;;;;;;;88.53;20.42;;;;;;;;;;6276339;22;20053;-70
2023/01/04 04:17:54;;;;;;;105.53;20.50;;;;;;;;;;6276528;22;19999;-69
2023/01/04 04:20:21;;;;;;;113.68;20.25;;;;;;;;;;6248818;22;20084;-70
2023/01/04 04:22:47;;;;;;;77.85;21.05;;;;;;;;;;6276022;22;20334;-69
2023/01/04 04:25:13;;;;;;;142.13;21.70;;;;;;;;;;6276048;22;20000;-68
2023/01/04 04:27:39;;;;;;;144.15;21.35;;;;;;;;;;6275906;22;20012;-68
2023/01/04 04:30:06;;;;;;;117.85;20.63;;;;;;;;;;6275733;22;20007;-71
2023/01/04 04:32:32;;;;;;;84.95;21.63;;;;;;;;;;6276323;22;20008;-69
2023/01/04 04:34:58;;;;;;;110.07;20.98;;;;;;;;;;6275778;22;20000;-73
2023/01/04 04:37:25;;;;;;;137.00;21.45;;;;;;;;;;6277778;22;20092;-68
2023/01/04 04:39:52;;;;;;;76.57;20.17;;;;;;;;;;6275960;22;19996;-69
2023/01/04 04:42:18;;;;;;;91.93;20.33;;;;;;;;;;6275881;22;20012;-71
2023/01/04 04:44:44;;;;;;;79.50;21.17;;;;;;;;;;6249083;22;20007;-70
2023/01/04 04:47:10;;;;;;;89.53;20.50;;;;;;;;;;6276210;22;20836;-69
2023/01/04 04:49:36;;;;;;;124.38;21.88;;;;;;;;;;6276103;22;20066;-70
2023/01/04 04:52:02;;;;;;;55.38;20.58;;;;;;;;;;6249375;22;20090;-69
2023/01/04 04:54:28;;;;;;;69.45;20.65;;;;;;;;;;6275900;22;20069;-71
2023/01/04 04:56:54;;;;;;;76.38;20.45;;;;;;;;;;6275654;22;20003;-68
2023/01/04 04:59:20;;;;;;;101.95;20.20;;;;;;;;;;6275823;22;20383;-70
2023/01/04 05:01:46;;;;;;;69.10;19.15;;;;;;;;;;6275662;22;20011;-71
2023/01/04 05:04:18;;;;;;;65.32;19.02;;;;;;;;;;6275984;22;20070;-69
2023/01/04 05:06:48;;;;;;;74.68;18.20;;;;;;;;;;6277253;22;20034;-72
2023/01/04 05:09:14;;;;;;;59.33;19.65;;;;;;;;;;6278073;22;20007;-70
2023/01/04 05:14:26;;;;;;;57.67;19.17;;;;;;;;;;6278177;22;20157;-68
2023/01/04 05:16:52;;;;;;;42.83;17.23;;;;;;;;;;6278024;22;20318;-70
2023/01/04 05:19:18;;;;;;;47.38;19.20;;;;;;;;;;6277629;22;19999;-69
2023/01/04 05:21:44;;;;;;;49.97;17.60;;;;;;;;;;6277880;22;20018;-67
2023/01/04 05:24:11;;;;;;;45.00;18.83;;;;;;;;;;6277885;22;19999;-69
2023/01/04 05:26:38;;;;;;;38.95;16.33;;;;;;;;;;6277842;22;20083;-69
2023/01/04 05:29:04;;;;;;;43.63;17.02;;;;;;;;;;6250632;22;20043;-72
2023/01/04 05:31:30;;;;;;;39.50;17.05;;;;;;;;;;6278006;22;20011;-71
2023/01/04 05:33:56;;;;;;;43.42;16.50;;;;;;;;;;6277724;22;20011;-71
2023/01/04 05:36:22;;;;;;;27.35;16.52;;;;;;;;;;6277939;22;20003;-69
2023/01/04 05:38:48;;;;;;;31.02;16.77;;;;;;;;;;6277427;22;20003;-70
2023/01/04 05:43:58;;;;;;;28.23;16.73;;;;;;;;;;6277756;22;20010;-71
2023/01/04 05:46:24;;;;;;;41.28;15.93;;;;;;;;;;6250296;22;20008;-70
2023/01/04 05:48:50;;;;;;;27.88;15.77;;;;;;;;;;6277588;22;20007;-68
2023/01/04 05:51:16;;;;;;;30.23;16.10;;;;;;;;;;6277964;22;20060;-77
2023/01/04 05:53:42;;;;;;;29.15;16.75;;;;;;;;;;6277584;22;20027;-70
2023/01/04 05:56:08;;;;;;;32.05;17.83;;;;;;;;;;6277494;22;20377;-71
2023/01/04 05:58:34;;;;;;;28.60;17.70;;;;;;;;;;6277424;22;19999;-70
2023/01/04 06:01:00;;;;;;;28.70;17.23;;;;;;;;;;6277326;22;20020;-69
2023/01/04 06:03:26;;;;;;;31.98;18.30;;;;;;;;;;6277710;22;20052;-69
2023/01/04 06:05:53;;;;;;;31.67;17.73;;;;;;;;;;6277738;22;20038;-72
2023/01/04 06:08:19;;;;;;;27.42;16.65;;;;;;;;;;6277559;22;20003;-68
2023/01/04 06:10:45;;;;;;;30.00;16.23;;;;;;;;;;6277561;22;20071;-69
2023/01/04 06:13:11;;;;;;;25.23;15.10;;;;;;;;;;6277505;22;20004;-73
2023/01/04 06:15:37;;;;;;;26.98;15.48;;;;;;;;;;6277604;22;20000;-68
2023/01/04 06:18:03;;;;;;;25.08;15.43;;;;;;;;;;6276691;22;20430;-69
2023/01/04 06:20:29;;;;;;;25.25;15.70;;;;;;;;;;6277417;22;20322;-71
2023/01/04 06:22:55;;;;;;;24.73;15.10;;;;;;;;;;6277255;22;20014;-71
2023/01/04 06:25:21;;;;;;;25.33;15.85;;;;;;;;;;6277310;22;19995;-71
2023/01/04 06:27:47;;;;;;;21.50;13.70;;;;;;;;;;6277334;22;20344;-69
2023/01/04 06:30:13;;;;;;;24.30;14.88;;;;;;;;;;6277437;22;20411;-69
2023/01/04 06:32:39;;;;;;;23.77;14.43;;;;;;;;;;6277091;22;20445;-69
2023/01/04 06:35:05;;;;;;;22.70;14.98;;;;;;;;;;6250313;22;20031;-68
2023/01/04 06:37:31;;;;;;;24.77;14.25;;;;;;;;;;6277346;22;20387;-70
2023/01/04 06:39:57;;;;;;;23.30;14.25;;;;;;;;;;6277184;22;20299;-69
2023/01/04 06:45:08;;;;;;;23.73;14.55;;;;;;;;;;6277099;22;20027;-70
2023/01/04 06:47:34;;;;;;;26.17;14.82;;;;;;;;;;6277317;22;20011;-73
2023/01/04 06:50:00;;;;;;;23.27;15.45;;;;;;;;;;6277441;22;20000;-69
2023/01/04 06:52:26;;;;;;;22.23;14.27;;;;;;;;;;6276790;22;20000;-68
2023/01/04 06:54:52;;;;;;;23.75;14.18;;;;;;;;;;6276680;22;20460;-77
2023/01/04 06:57:18;;;;;;;22.33;14.55;;;;;;;;;;6276971;22;20326;-75
2023/01/04 06:59:44;;;;;;;20.58;13.70;;;;;;;;;;6276361;22;20022;-68
2023/01/04 07:02:13;;;;;;;20.83;14.20;;;;;;;;;;6276451;22;20342;-72
2023/01/04 07:04:40;;;;;;;25.17;14.38;;;;;;;;;;6276571;22;20006;-79
2023/01/04 07:07:06;;;;;;;26.17;14.90;;;;;;;;;;6276515;22;20015;-74
2023/01/04 07:09:32;;;;;;;23.10;14.32;;;;;;;;;;6276869;22;20011;-73
2023/01/04 07:11:58;;;;;;;21.38;14.95;;;;;;;;;;6276713;22;20053;-70
2023/01/04 07:14:25;;;;;;;21.83;15.18;;;;;;;;;;6276563;22;19996;-72
2023/01/04 07:16:51;;;;;;;21.02;13.32;;;;;;;;;;6276575;22;20003;-73
2023/01/04 07:19:17;;;;;;;23.42;14.02;;;;;;;;;;6276687;22;20000;-73
2023/01/04 07:21:43;;;;;;;20.27;12.88;;;;;;;;;;6276476;22;20091;-74
2023/01/04 07:24:09;;;;;;;20.98;13.63;;;;;;;;;;6276562;22;19996;-74
2023/01/04 07:26:35;;;;;;;18.65;12.75;;;;;;;;;;6277436;22;20004;-74
2023/01/04 07:29:14;;;;;;;21.25;13.70;;;;;;;;;;6276153;22;20066;-71
2023/01/04 07:31:40;;;;;;;20.90;13.75;;;;;;;;;;6276818;22;20004;-67
2023/01/04 07:34:06;;;;;;;25.05;15.15;;;;;;;;;;6276535;22;19999;-68
2023/01/04 07:36:32;;;;;;;24.17;15.63;;;;;;;;;;6276686;22;19999;-69
2023/01/04 07:38:59;;;;;;;24.83;16.98;;;;;;;;;;6276421;22;20326;-68
2023/01/04 07:41:25;;;;;;;21.90;15.40;;;;;;;;;;6276222;22;20007;-68
2023/01/04 07:43:51;;;;;;;18.65;13.20;;;;;;;;;;6276499;22;20066;-67
2023/01/04 07:46:20;;;;;;;20.58;13.40;;;;;;;;;;6276513;22;20403;-67
2023/01/04 07:48:46;;;;;;;21.42;13.85;;;;;;;;;;6276712;22;19999;-68
2023/01/04 07:51:12;;;;;;;17.67;12.63;;;;;;;;;;6276430;22;20003;-68
2023/01/04 07:53:38;;;;;;;16.48;12.27;;;;;;;;;;6249003;22;20008;-69
2023/01/04 07:56:05;;;;;;;18.88;13.10;;;;;;;;;;6276207;22;20007;-69
2023/01/04 07:58:32;;;;;;;19.33;13.10;;;;;;;;;;6276243;22;20338;-68
2023/01/04 08:01:15;;;;;;;18.98;12.80;;;;;;;;;;6276185;22;20015;-69
2023/01/04 08:03:41;;;;;;;19.42;13.38;;;;;;;;;;6276831;22;20015;-69
2023/01/04 08:06:08;;;;;;;17.98;12.77;;;;;;;;;;6276468;22;20326;-70
2023/01/04 08:08:34;;;;;;;21.55;13.77;;;;;;;;;;6276330;22;20426;-69
2023/01/04 08:11:01;;;;;;;20.08;14.05;;;;;;;;;;6275964;22;20000;-71
2023/01/04 08:13:28;;;;;;;19.02;13.02;;;;;;;;;;6276014;22;20031;-70
2023/01/04 08:15:54;;;;;;;18.55;12.40;;;;;;;;;;6275988;22;20010;-69
2023/01/04 08:18:20;;;;;;;19.05;12.70;;;;;;;;;;6275851;22;20034;-69
2023/01/04 08:20:46;;;;;;;18.88;13.52;;;;;;;;;;6275599;22;19999;-68
2023/01/04 08:23:12;;;;;;;20.10;14.43;;;;;;;;;;6275831;22;20006;-70
2023/01/04 08:25:38;;;;;;;21.13;14.65;;;;;;;;;;6276361;22;20095;-70
2023/01/04 08:28:05;;;;;;;20.83;14.73;;;;;;;;;;6275787;22;20050;-70
2023/01/04 08:30:31;;;;;;;21.23;14.43;;;;;;;;;;6276202;22;20003;-69
2023/01/04 08:32:58;;;;;;;21.73;14.20;;;;;;;;;;6275693;22;20003;-69
2023/01/04 08:35:24;;;;;;;21.65;15.20;;;;;;;;;;6275662;22;20003;-69
2023/01/04 08:37:50;;;;;;;24.08;14.02;;;;;;;;;;6275640;22;20434;-69
2023/01/04 08:40:17;;;;;;;20.17;14.50;;;;;;;;;;6275803;22;20004;-68
2023/01/04 08:42:43;;;;;;;21.02;15.50;;;;;;;;;;6275659;22;20065;-68
2023/01/04 08:45:09;;;;;;;22.88;16.42;;;;;;;;;;6275797;22;20038;-69
2023/01/04 08:47:35;;;;;;;27.75;17.73;;;;;;;;;;6275719;22;20434;-68
2023/01/04 08:50:01;;;;;;;28.95;19.42;;;;;;;;;;6276161;22;20007;-69
2023/01/04 08:52:27;;;;;;;27.85;19.17;;;;;;;;;;6275543;22;20003;-69
2023/01/04 08:54:53;;;;;;;25.98;17.85;;;;;;;;;;6274886;22;20423;-68
2023/01/04 08:57:19;;;;;;;28.98;18.92;;;;;;;;;;6274301;22;20030;-69
2023/01/04 08:59:45;;;;;;;28.13;17.65;;;;;;;;;;6275424;22;20003;-69
2023/01/04 09:02:26;;;;;;;33.00;18.23;;;;;;;;;;6275283;22;20012;-71
2023/01/04 09:04:58;;;;;;;20.70;13.32;;;;;;;;;;6274910;22;20011;-69
2023/01/04 09:07:24;;;;;;;16.35;12.07;;;;;;;;;;6275782;22;20004;-69
2023/01/04 09:09:50;;;;;;;15.70;11.75;;;;;;;;;;6275647;22;20000;-69
2023/01/04 09:12:16;;;;;;;13.02;10.30;;;;;;;;;;6275659;22;19999;-69
2023/01/04 09:14:42;;;;;;;16.23;10.13;;;;;;;;;;6275226;22;20473;-70
2023/01/04 09:17:09;;;;;;;13.25;10.13;;;;;;;;;;6275103;22;20027;-67
2023/01/04 09:19:35;;;;;;;11.77;9.38;;;;;;;;;;6274826;22;20495;-68
2023/01/04 09:22:01;;;;;;;11.48;8.70;;;;;;;;;;6275109;22;20015;-68
2023/01/04 09:24:27;;;;;;;13.07;9.63;;;;;;;;;;6275539;22;20023;-69
2023/01/04 09:26:53;;;;;;;9.23;7.88;;;;;;;;;;6275198;22;20004;-72
2023/01/04 09:29:19;;;;;;;9.48;8.02;;;;;;;;;;6275870;22;20430;-70
2023/01/04 09:31:45;;;;;;;10.60;7.93;;;;;;;;;;6275883;22;20000;-69
2023/01/04 09:34:12;;;;;;;9.88;7.38;;;;;;;;;;6275948;22;20050;-70
2023/01/04 09:36:38;;;;;;;9.45;7.45;;;;;;;;;;6275928;22;20371;-70
2023/01/04 09:39:04;;;;;;;10.15;7.70;;;;;;;;;;6275853;22;20000;-70
2023/01/04 09:41:42;;;;;;;10.75;7.32;;;;;;;;;;6275585;22;20329;-69
2023/01/04 09:44:08;;;;;;;10.98;7.20;;;;;;;;;;6275764;22;20101;-70
2023/01/04 09:46:49;;;;;;;7.65;6.55;;;;;;;;;;6276102;22;20104;-69
2023/01/04 09:49:34;;;;;;;8.82;7.22;;;;;;;;;;6275907;22;20014;-69
2023/01/04 09:52:09;;;;;;;8.80;7.22;;;;;;;;;;6275921;22;20054;-69
2023/01/04 09:54:38;;;;;;;10.90;7.30;;;;;;;;;;6276211;22;20430;-69
2023/01/04 09:57:04;;;;;;;9.00;7.45;;;;;;;;;;6277173;22;20000;-69
2023/01/04 09:59:32;;;;;;;11.05;7.70;;;;;;;;;;6277717;22;19996;-69
2023/01/04 10:02:04;;;;;;;11.48;8.10;;;;;;;;;;6277351;22;20434;-70
2023/01/04 10:04:56;;;;;;;11.02;7.13;;;;;;;;;;6276639;22;20002;-69
2023/01/04 10:07:30;;;;;;;9.45;7.47;;;;;;;;;;6271989;22;20312;-69
2023/01/04 10:09:56;;;;;;;8.45;6.93;;;;;;;;;;6277474;22;20372;-69
2023/01/04 10:12:28;;;;;;;9.07;7.53;;;;;;;;;;6277284;22;20074;-69
2023/01/04 10:15:12;;;;;;;9.35;7.90;;;;;;;;;;6277371;22;20403;-69
2023/01/04 10:17:38;;;;;;;11.55;7.97;;;;;;;;;;6277307;22;20054;-69
2023/01/04 10:20:22;;;;;;;8.60;7.63;;;;;;;;;;6277238;22;20000;-69
2023/01/04 10:22:57;;;;;;;10.25;7.88;;;;;;;;;;6277309;22;20022;-69
2023/01/04 10:25:27;;;;;;;10.13;8.95;;;;;;;;;;6277741;22;20000;-69
2023/01/04 10:27:53;;;;;;;11.88;9.23;;;;;;;;;;6277221;22;20142;-70
2023/01/04 10:30:25;;;;;;;9.90;8.75;;;;;;;;;;6277370;22;20010;-68
2023/01/04 10:32:58;;;;;;;11.70;10.10;;;;;;;;;;6277048;22;20010;-69
2023/01/04 10:35:26;;;;;;;12.27;10.05;;;;;;;;;;6277594;22;20030;-69
2023/01/04 10:37:59;;;;;;;10.70;9.20;;;;;;;;;;6277523;22;20050;-69
2023/01/04 10:40:27;;;;;;;14.48;9.88;;;;;;;;;;6277519;22;20335;-69
2023/01/04 10:42:53;;;;;;;16.52;10.82;;;;;;;;;;6277256;22;20007;-71
2023/01/04 10:45:30;;;;;;;14.20;11.07;;;;;;;;;;6277257;22;20049;-69
2023/01/04 10:48:12;;;;;;;12.85;8.73;;;;;;;;;;6277267;22;20011;-69
2023/01/04 10:50:45;;;;;;;13.45;8.73;;;;;;;;;;6277097;22;20371;-69
2023/01/04 10:53:15;;;;;;;10.98;8.45;;;;;;;;;;6277009;22;20326;-69
2023/01/04 10:55:46;;;;;;;11.35;7.95;;;;;;;;;;6276982;22;20052;-70
2023/01/04 10:58:19;;;;;;;18.95;8.77;;;;;;;;;;6277201;22;19995;-69
2023/01/04 11:00:45;;;;;;;;;;;;;;;;;;6277671;22;20010;-71
2023/01/04 11:03:20;;;;;;;13.20;8.70;;;;;;;;;;6277550;22;20290;-69
2023/01/04 11:05:52;;;;;;;15.68;9.57;;;;;;;;;;6277058;22;20035;-70
2023/01/04 11:08:18;;;;;;;;;;;;;;;;;;6277566;22;20418;-68
2023/01/04 11:10:50;;;;;;;11.57;7.38;;;;;;;;;;6277066;22;19907;-69
2023/01/04 11:13:16;;;;;;;7.90;5.60;;;;;;;;;;6277009;22;20299;-68
2023/01/04 11:15:44;;;;;;;9.80;8.10;;;;;;;;;;6276744;22;19999;-71
2023/01/04 11:18:12;;;;;;;11.98;9.30;;;;;;;;;;6277020;22;19996;-68
2023/01/04 11:20:39;;;;;;;10.73;8.70;;;;;;;;;;6276889;22;20011;-69
2023/01/04 11:23:18;;;;;;;11.15;9.10;;;;;;;;;;6276462;22;20004;-69
2023/01/04 11:25:56;;;;;;;14.38;8.75;;;;;;;;;;6276861;22;19995;-69
2023/01/04 11:28:28;;;;;;;12.52;9.45;;;;;;;;;;6276465;22;20012;-69
2023/01/04 11:31:23;;;;;;;12.68;8.65;;;;;;;;;;6276762;22;20003;-69
2023/01/04 11:33:55;;;;;;;11.25;8.68;;;;;;;;;;6168647;22;20041;-69
2023/01/04 11:36:30;;;;;;;11.75;9.02;;;;;;;;;;6276334;22;20307;-69
2023/01/04 11:38:57;;;;;;;12.43;9.35;;;;;;;;;;6276623;22;20330;-69
2023/01/04 11:41:23;;;;;;;11.43;9.70;;;;;;;;;;6276464;22;20038;-68
2023/01/04 11:44:00;;;;;;;10.10;8.88;;;;;;;;;;6276337;22;20000;-69
2023/01/04 11:46:27;;;;;;;10.80;8.63;;;;;;;;;;6276619;22;20027;-69
2023/01/04 11:48:54;;;;;;;12.43;8.02;;;;;;;;;;6276560;22;20007;-70
2023/01/04 11:51:26;;;;;;;8.43;7.30;;;;;;;;;;6276773;22;20038;-69
2023/01/04 11:54:03;;;;;;;10.50;7.95;;;;;;;;;;6276772;22;20129;-70
2023/01/04 11:56:30;;;;;;;8.75;7.70;;;;;;;;;;6276399;22;20000;-68
2023/01/04 11:59:15;;;;;;;8.90;7.32;;;;;;;;;;6276246;22;20458;-69
2023/01/04 12:01:43;;;;;;;10.07;7.35;;;;;;;;;;6276804;22;20073;-69
2023/01/04 12:04:23;;;;;;;11.10;7.60;;;;;;;;;;6276415;22;20007;-71
2023/01/04 12:06:58;;;;;;;13.25;7.47;;;;;;;;;;6276427;22;19999;-68
2023/01/04 12:09:25;;;;;;;12.82;7.97;;;;;;;;;;6277135;22;20062;-69
2023/01/04 12:11:52;;;;;;;8.98;7.35;;;;;;;;;;6276460;22;20008;-68
2023/01/04 12:14:20;;;;;;;9.63;6.45;;;;;;;;;;6276063;22;20049;-69
2023/01/04 12:16:59;;;;;;;9.18;6.05;;;;;;;;;;6275753;22;20007;-69
2023/01/04 12:19:26;;;;;;;6.70;5.80;;;;;;;;;;6248784;22;20004;-69
2023/01/04 12:21:54;;;;;;;8.25;4.15;;;;;;;;;;6275984;22;20047;-69
2023/01/04 12:24:22;;;;;;;6.13;4.57;;;;;;;;;;6276193;22;20006;-69
2023/01/04 12:26:49;;;;;;;4.45;3.88;;;;;;;;;;6275937;22;20037;-69
2023/01/04 12:29:23;;;;;;;5.78;4.40;;;;;;;;;;6276203;22;20008;-68
2023/01/04 12:32:16;;;;;;;9.88;4.72;;;;;;;;;;6276311;22;20446;-69
2023/01/04 12:34:46;;;;;;;8.52;4.22;;;;;;;;;;6230091;22;20034;-69
2023/01/04 12:37:31;;;;;;;8.27;5.13;;;;;;;;;;6276397;22;20000;-69
2023/01/04 12:39:57;;;;;;;7.45;5.07;;;;;;;;;;6275914;22;19996;-69
2023/01/04 12:42:25;;;;;;;6.47;4.57;;;;;;;;;;6276264;22;20023;-68
2023/01/04 12:44:51;;;;;;;5.97;4.70;;;;;;;;;;6276240;22;20000;-69
2023/01/04 12:50:15;;;;;;;6.28;4.90;;;;;;;;;;6276102;22;20058;-68
2023/01/04 12:52:45;;;;;;;5.18;4.20;;;;;;;;;;6275990;22;20003;-69
2023/01/04 12:55:30;;;;;;;10.52;4.70;;;;;;;;;;6275879;22;19996;-69
2023/01/04 12:57:57;;;;;;;6.18;4.38;;;;;;;;;;6276331;22;20046;-69
2023/01/04 13:00:23;;;;;;;4.43;3.45;;;;;;;;;;6275921;22;20474;-69
2023/01/04 13:03:08;;;;;;;5.32;3.97;;;;;;;;;;6275818;22;20087;-68
2023/01/04 13:05:38;;;;;;;4.90;4.10;;;;;;;;;;6275848;22;20004;-68
2023/01/04 13:08:09;;;;;;;8.60;4.65;;;;;;;;;;6275952;22;19996;-69
2023/01/04 13:10:37;;;;;;;5.93;4.30;;;;;;;;;;6275914;22;20000;-68
2023/01/04 13:13:03;;;;;;;5.30;4.05;;;;;;;;;;6276315;22;20365;-68
2023/01/04 13:15:48;;;;;;;5.55;3.58;;;;;;;;;;6276145;22;20414;-68
2023/01/04 13:18:30;;;;;;;5.15;3.50;;;;;;;;;;6276020;22;20004;-68
2023/01/04 13:20:56;;;;;;;5.68;3.78;;;;;;;;;;6275968;22;20453;-70
2023/01/04 13:23:24;;;;;;;5.90;3.70;;;;;;;;;;6275764;22;20000;-68
2023/01/04 13:25:50;;;;;;;8.30;4.40;;;;;;;;;;6275871;22;20004;-68
2023/01/04 13:28:17;;;;;;;4.72;3.30;;;;;;;;;;6277441;22;20012;-69
2023/01/04 13:30:44;;;;;;;4.78;3.22;;;;;;;;;;6277720;22;20326;-70
2023/01/04 13:33:20;;;;;;;4.70;3.70;;;;;;;;;;6277969;22;20026;-68
2023/01/04 13:35:58;;;;;;;8.88;3.33;;;;;;;;;;6277804;22;20035;-68
2023/01/04 13:38:24;;;;;;;4.30;3.10;;;;;;;;;;6277863;22;19996;-68
2023/01/04 13:40:50;;;;;;;3.90;2.80;;;;;;;;;;6277660;22;20000;-69
2023/01/04 13:43:19;;;;;;;5.80;3.47;;;;;;;;;;6277648;22;20061;-69
2023/01/04 13:45:53;;;;;;;5.57;3.20;;;;;;;;;;6278034;22;20318;-69
2023/01/04 13:48:20;;;;;;;4.63;3.28;;;;;;;;;;6277782;22;20003;-71
2023/01/04 13:50:58;;;;;;;4.50;3.38;;;;;;;;;;6277767;22;19999;-70
2023/01/04 13:53:25;;;;;;;4.88;3.92;;;;;;;;;;6277457;22;20011;-69
2023/01/04 13:55:53;;;;;;;5.35;3.80;;;;;;;;;;6277390;22;20000;-68
2023/01/04 13:58:20;;;;;;;5.35;3.63;;;;;;;;;;6277407;22;20015;-69
2023/01/04 14:01:00;;;;;;;6.53;3.95;;;;;;;;;;6277693;22;20372;-69
2023/01/04 14:03:30;;;;;;;6.88;3.88;;;;;;;;;;6277929;22;20057;-69
2023/01/04 14:05:58;;;;;;;6.28;3.63;;;;;;;;;;6277731;22;20010;-69
2023/01/04 14:08:27;;;;;;;5.75;3.75;;;;;;;;;;6277161;22;20004;-69
2023/01/04 14:10:53;;;;;;;4.20;3.33;;;;;;;;;;6277316;22;20372;-71
2023/01/04 14:13:20;;;;;;;6.18;3.42;;;;;;;;;;6277695;22;20020;-68
2023/01/04 14:15:46;;;;;;;9.23;4.45;;;;;;;;;;6277204;22;20004;-69
2023/01/04 14:18:28;;;;;;;8.32;4.30;;;;;;;;;;6277391;22;19999;-71
2023/01/04 14:20:54;;;;;;;9.20;4.20;;;;;;;;;;6277104;22;20010;-69
2023/01/04 14:23:38;;;;;;;6.55;4.78;;;;;;;;;;6277148;22;20010;-69
2023/01/04 14:26:04;;;;;;;5.13;3.75;;;;;;;;;;6277049;22;20438;-69
2023/01/04 14:28:32;;;;;;;6.18;3.72;;;;;;;;;;6277091;22;20012;-69
2023/01/04 14:30:58;;;;;;;6.88;4.05;;;;;;;;;;6277118;22;20007;-69
2023/01/04 14:33:27;;;;;;;7.20;3.33;;;;;;;;;;6277597;22;20004;-70
2023/01/04 14:36:06;;;;;;;4.95;3.17;;;;;;;;;;6277363;22;20006;-71
2023/01/04 14:38:35;;;;;;;3.78;2.88;;;;;;;;;;6249605;22;20007;-69
2023/01/04 14:41:10;;;;;;;5.40;3.10;;;;;;;;;;6276919;22;20492;-68
2023/01/04 14:43:43;;;;;;;8.18;4.30;;;;;;;;;;6276957;22;20000;-69
2023/01/04 14:46:09;;;;;;;9.40;5.80;;;;;;;;;;6276941;22;20027;-68
2023/01/04 14:48:35;;;;;;;8.13;5.35;;;;;;;;;;6277019;22;20003;-68
2023/01/04 14:51:03;;;;;;;10.57;5.55;;;;;;;;;;6277322;22;20422;-69
2023/01/04 14:53:29;;;;;;;9.25;6.40;;;;;;;;;;6274698;22;20331;-69
2023/01/04 14:55:55;;;;;;;11.45;6.43;;;;;;;;;;6273950;22;20331;-69
2023/01/04 14:58:21;;;;;;;13.13;7.00;;;;;;;;;;6274732;22;20077;-68
2023/01/04 15:00:47;;;;;;;10.57;5.45;;;;;;;;;;6277254;22;20062;-69
2023/01/04 15:03:13;;;;;;;5.45;4.70;;;;;;;;;;6276790;22;20004;-69
2023/01/04 15:05:41;;;;;;;6.45;4.53;;;;;;;;;;6276747;22;20010;-69
2023/01/04 15:08:09;;;;;;;5.53;4.63;;;;;;;;;;6249781;22;20014;-69
2023/01/04 15:10:35;;;;;;;5.32;4.40;;;;;;;;;;6276739;22;20045;-69
2023/01/04 15:13:03;;;;;;;5.90;4.60;;;;;;;;;;6276671;22;20011;-69
2023/01/04 15:15:29;;;;;;;8.88;4.97;;;;;;;;;;6276982;22;20003;-69
2023/01/04 15:17:55;;;;;;;11.88;7.55;;;;;;;;;;6275290;22;20035;-71
2023/01/04 15:20:21;;;;;;;17.63;12.32;;;;;;;;;;6273648;22;19999;-69
2023/01/04 15:22:47;;;;;;;23.40;13.23;;;;;;;;;;6273273;22;20015;-70
2023/01/04 15:25:13;;;;;;;23.90;13.50;;;;;;;;;;6275100;22;20000;-69
2023/01/04 15:27:39;;;;;;;25.13;13.80;;;;;;;;;;6276802;22;20016;-69
2023/01/04 15:30:05;;;;;;;22.27;14.27;;;;;;;;;;6249636;22;20046;-69
2023/01/04 15:32:34;;;;;;;19.92;14.98;;;;;;;;;;6277207;22;20000;-68